Time;durP1;ratioP1;P1;durP2;ratioP2;P2;SDS_P1;SDS_P2;PMS_P1;PMS_P2;Temp;Humidity;BMP_temperature;BMP_pressure;BME280_temperature;BME280_humidity;BME280_pressure;Samples;Min_cycle;Max_cycle;Signal;HPM_P1;HPM_P2
2024/02/08 00:02:17;;;;;;;8.35;6.07;;;14.80;99.90;;;;;;7382960;19;20015;-77
2024/02/08 00:04:47;;;;;;;9.98;5.47;;;14.90;99.90;;;;;;7382978;19;20433;-77
2024/02/08 00:07:15;;;;;;;10.23;5.20;;;14.80;99.90;;;;;;7404671;19;20032;-77
2024/02/08 00:09:47;;;;;;;7.75;5.82;;;14.90;99.90;;;;;;7384914;19;20023;-77
2024/02/08 00:12:16;;;;;;;5.95;5.20;;;14.90;99.90;;;;;;7381756;19;20014;-77
2024/02/08 00:14:45;;;;;;;8.95;5.68;;;14.90;99.90;;;;;;7382124;19;20007;-77
2024/02/08 00:17:13;;;;;;;7.53;5.22;;;15.00;99.90;;;;;;7384831;19;20074;-77
2024/02/08 00:19:42;;;;;;;9.20;5.53;;;15.10;99.90;;;;;;7382194;19;20075;-77
2024/02/08 00:22:11;;;;;;;8.05;5.68;;;15.20;99.90;;;;;;7403380;19;20362;-77
2024/02/08 00:24:39;;;;;;;8.27;5.28;;;15.20;99.90;;;;;;7381205;19;20011;-77
2024/02/08 00:27:11;;;;;;;8.93;5.57;;;15.20;99.90;;;;;;7381913;19;20040;-77
2024/02/08 00:29:43;;;;;;;8.43;5.90;;;15.10;99.90;;;;;;7383070;19;20002;-77
2024/02/08 00:32:11;;;;;;;9.27;4.90;;;15.00;99.90;;;;;;7383577;19;20013;-77
2024/02/08 00:34:40;;;;;;;8.98;5.53;;;15.00;99.90;;;;;;7382845;19;20405;-77
2024/02/08 00:37:09;;;;;;;14.82;5.25;;;15.10;99.90;;;;;;7403776;19;20026;-77
2024/02/08 00:39:42;;;;;;;8.95;5.15;;;15.20;99.90;;;;;;7381545;19;20074;-77
2024/02/08 00:42:13;;;;;;;7.15;4.32;;;15.20;99.90;;;;;;7380101;19;20054;-77
2024/02/08 00:44:43;;;;;;;11.00;4.53;;;15.10;99.90;;;;;;7383348;19;20003;-77
2024/02/08 00:47:12;;;;;;;10.25;5.03;;;15.10;99.90;;;;;;7381563;19;19999;-77
2024/02/08 00:49:48;;;;;;;5.82;4.13;;;15.10;99.90;;;;;;7382073;19;20023;-77
2024/02/08 00:52:18;;;;;;;5.65;4.20;;;15.10;99.90;;;;;;7403769;19;20058;-77
2024/02/08 00:54:50;;;;;;;6.90;4.13;;;15.20;99.90;;;;;;7380385;19;20406;-77
2024/02/08 00:57:21;;;;;;;6.35;3.63;;;15.20;99.90;;;;;;7379644;19;20002;-77
2024/02/08 00:59:50;;;;;;;6.18;3.60;;;15.20;99.90;;;;;;7381665;19;20357;-78
2024/02/08 01:02:19;;;;;;;4.75;3.65;;;15.20;99.90;;;;;;7380800;19;20024;-77
2024/02/08 01:04:49;;;;;;;7.15;3.80;;;15.20;99.90;;;;;;7381629;19;20018;-77
2024/02/08 01:07:17;;;;;;;5.97;3.53;;;15.00;99.90;;;;;;7399341;19;20216;-77
2024/02/08 01:09:46;;;;;;;6.60;3.60;;;15.00;99.90;;;;;;7385047;19;20050;-77
2024/02/08 01:12:16;;;;;;;5.57;3.53;;;15.10;99.90;;;;;;7386124;19;20006;-77
2024/02/08 01:14:50;;;;;;;4.30;3.25;;;14.90;99.90;;;;;;7386918;19;20013;-78
2024/02/08 01:17:19;;;;;;;5.35;3.60;;;14.90;99.90;;;;;;7386629;19;20007;-77
2024/02/08 01:19:50;;;;;;;6.25;3.60;;;14.90;99.90;;;;;;7387525;19;20391;-77
2024/02/08 01:22:20;;;;;;;3.50;3.00;;;14.90;99.90;;;;;;7406746;19;20013;-77
2024/02/08 01:24:51;;;;;;;5.15;3.45;;;15.10;99.90;;;;;;7384093;19;20020;-78
2024/02/08 01:27:20;;;;;;;;;;;15.10;99.90;;;;;;7384738;19;20423;-78
2024/02/08 01:29:53;;;;;;;6.72;3.33;;;15.10;99.90;;;;;;7384821;19;19920;-78
2024/02/08 01:32:24;;;;;;;7.20;3.70;;;15.10;99.90;;;;;;7385898;19;20002;-78
2024/02/08 01:34:55;;;;;;;4.97;3.38;;;15.00;99.90;;;;;;7389544;19;20003;-78
2024/02/08 01:37:23;;;;;;;4.25;3.38;;;15.10;99.90;;;;;;7409727;19;20006;-77
2024/02/08 01:39:52;;;;;;;4.53;3.22;;;15.10;99.90;;;;;;7383982;19;20011;-78
2024/02/08 01:42:21;;;;;;;6.03;3.55;;;15.10;99.90;;;;;;7379988;19;20028;-77
2024/02/08 01:45:20;;;;;;;6.20;3.72;;;15.10;99.90;;;;;;7381318;19;20038;-78
2024/02/08 01:47:49;;;;;;;7.18;4.15;;;15.20;99.90;;;;;;7383172;19;20066;-77
2024/02/08 01:50:18;;;;;;;6.35;4.00;;;15.00;99.90;;;;;;7382744;19;20603;-78
2024/02/08 01:52:50;;;;;;;7.50;3.53;;;15.10;99.90;;;;;;7382633;19;20007;-78
2024/02/08 01:55:21;;;;;;;5.03;4.10;;;15.20;99.90;;;;;;7404814;19;20007;-78
2024/02/08 01:57:50;;;;;;;8.93;4.00;;;15.10;99.90;;;;;;7381185;19;20002;-78
2024/02/08 02:00:22;;;;;;;6.85;3.53;;;15.10;99.90;;;;;;7381506;19;20007;-77
2024/02/08 02:02:53;;;;;;;7.25;3.90;;;15.20;99.90;;;;;;7381321;19;20015;-78
2024/02/08 02:05:22;;;;;;;6.65;4.70;;;15.30;99.90;;;;;;7380684;19;20011;-77
2024/02/08 02:07:51;;;;;;;7.32;4.38;;;15.10;99.90;;;;;;7380731;19;20292;-78
2024/02/08 02:10:20;;;;;;;5.32;3.85;;;15.10;99.90;;;;;;7404387;19;20394;-77
2024/02/08 02:12:51;;;;;;;7.20;4.30;;;15.20;99.90;;;;;;7379655;19;20019;-78
2024/02/08 02:15:22;;;;;;;6.40;3.83;;;15.20;99.90;;;;;;7380094;19;20175;-76
2024/02/08 02:17:51;;;;;;;;;;;15.30;99.90;;;;;;7377674;19;20014;-76
2024/02/08 02:20:24;;;;;;;6.25;3.90;;;15.30;99.90;;;;;;7381296;19;19907;-76
2024/02/08 02:22:57;;;;;;;9.27;3.95;;;15.30;99.90;;;;;;7378913;19;20092;-77
2024/02/08 02:25:26;;;;;;;6.20;3.80;;;15.30;99.90;;;;;;7400618;19;20003;-77
2024/02/08 02:27:58;;;;;;;6.07;3.25;;;15.20;99.90;;;;;;7380056;19;20003;-77
2024/02/08 02:30:28;;;;;;;4.55;3.13;;;15.00;99.90;;;;;;7377398;19;20022;-77
2024/02/08 02:32:59;;;;;;;4.85;2.90;;;15.00;99.90;;;;;;7377790;19;20299;-77
2024/02/08 02:35:29;;;;;;;3.47;2.72;;;14.80;99.90;;;;;;7378252;19;20029;-77
2024/02/08 02:38:02;;;;;;;3.10;2.63;;;14.80;99.90;;;;;;7379718;19;20051;-77
2024/02/08 02:40:33;;;;;;;4.35;2.80;;;14.80;99.90;;;;;;7402261;19;20010;-77
2024/02/08 02:43:09;;;;;;;5.53;2.60;;;14.90;99.90;;;;;;7379747;19;20003;-77
2024/02/08 02:45:38;;;;;;;5.82;3.08;;;14.90;99.90;;;;;;7377345;19;20066;-77
2024/02/08 02:48:07;;;;;;;3.35;2.53;;;15.00;99.90;;;;;;7377357;19;20020;-77
2024/02/08 02:50:40;;;;;;;2.67;2.38;;;15.10;99.90;;;;;;7376677;19;20020;-77
2024/02/08 02:53:12;;;;;;;4.20;2.35;;;15.00;99.90;;;;;;7378060;19;20032;-77
2024/02/08 02:55:41;;;;;;;;;;;15.10;99.90;;;;;;7394120;19;20067;-77
2024/02/08 02:58:12;;;;;;;2.55;1.80;;;15.00;99.90;;;;;;7398101;19;19907;-77
2024/02/08 03:00:41;;;;;;;2.47;1.70;;;15.10;99.90;;;;;;7377637;19;20066;-77
2024/02/08 03:03:12;;;;;;;2.28;1.83;;;15.20;99.90;;;;;;7377285;19;20054;-77
2024/02/08 03:05:43;;;;;;;3.10;2.20;;;15.20;99.90;;;;;;7377335;19;20381;-77
2024/02/08 03:08:16;;;;;;;8.30;2.42;;;15.20;99.90;;;;;;7376707;19;20011;-77
2024/02/08 03:10:46;;;;;;;3.47;2.08;;;15.00;99.90;;;;;;7376843;19;20039;-77
2024/02/08 03:13:15;;;;;;;7.13;2.40;;;15.10;99.90;;;;;;7397939;19;20369;-77
2024/02/08 03:15:43;;;;;;;4.38;2.00;;;15.10;99.90;;;;;;7377688;19;20075;-76
2024/02/08 03:18:14;;;;;;;3.20;2.13;;;15.20;99.90;;;;;;7375971;19;20063;-76
2024/02/08 03:20:45;;;;;;;3.83;2.00;;;15.20;99.90;;;;;;7376650;19;20389;-76
2024/02/08 03:23:16;;;;;;;4.63;2.28;;;15.10;99.90;;;;;;7377318;19;20002;-76
2024/02/08 03:25:45;;;;;;;5.80;2.03;;;15.20;99.90;;;;;;7376865;19;20127;-77
2024/02/08 03:28:13;;;;;;;2.83;1.42;;;15.10;99.90;;;;;;7397919;19;20010;-76
2024/02/08 03:30:42;;;;;;;1.27;1.17;;;14.90;99.90;;;;;;7380982;19;20032;-76
2024/02/08 03:33:15;;;;;;;2.03;1.40;;;14.90;99.90;;;;;;7385748;19;20078;-76
2024/02/08 03:35:53;;;;;;;1.88;1.20;;;14.70;99.90;;;;;;7385920;19;20009;-76
2024/02/08 03:38:24;;;;;;;1.30;1.20;;;14.70;99.90;;;;;;7387233;19;20003;-76
2024/02/08 03:40:52;;;;;;;1.30;1.20;;;14.90;99.90;;;;;;7383449;19;20028;-76
2024/02/08 03:43:23;;;;;;;1.33;1.20;;;14.90;99.90;;;;;;7404763;19;20019;-77
2024/02/08 03:45:55;;;;;;;7.60;1.37;;;14.90;99.90;;;;;;7383871;19;20390;-76
2024/02/08 03:48:24;;;;;;;1.98;1.42;;;15.10;99.90;;;;;;7383156;19;19999;-76
2024/02/08 03:50:54;;;;;;;2.65;1.48;;;15.00;99.90;;;;;;7384313;19;20066;-76
2024/02/08 03:53:25;;;;;;;1.40;1.23;;;14.80;99.90;;;;;;7385014;19;20006;-76
2024/02/08 03:55:55;;;;;;;2.20;1.25;;;15.00;99.90;;;;;;7383379;19;20024;-76
2024/02/08 03:58:24;;;;;;;1.85;1.30;;;15.10;99.90;;;;;;7403170;19;20074;-76
2024/02/08 04:00:53;;;;;;;6.57;1.27;;;15.00;99.90;;;;;;7382712;19;20066;-76
2024/02/08 04:03:43;;;;;;;2.28;1.48;;;14.90;99.90;;;;;;7381897;19;20010;-76
2024/02/08 04:06:26;;;;;;;1.02;0.98;;;15.00;99.90;;;;;;7382477;19;20002;-77
2024/02/08 04:09:16;;;;;;;0.90;0.90;;;15.10;99.90;;;;;;7382392;19;20354;-77
2024/02/08 04:54:51;;;;;;;0.70;0.55;;;15.10;99.90;;;;;;7378403;19;20011;-77
2024/02/08 04:57:25;;;;;;;0.43;0.43;;;15.20;99.90;;;;;;7378074;19;20109;-77
2024/02/08 04:59:53;;;;;;;1.55;0.60;;;15.20;99.90;;;;;;7378260;19;20317;-77
2024/02/08 05:02:23;;;;;;;5.93;0.50;;;15.20;99.90;;;;;;7377782;19;20070;-77
2024/02/08 05:05:04;;;;;;;0.85;0.65;;;15.10;99.90;;;;;;7389653;19;20032;-76
2024/02/08 05:07:35;;;;;;;0.50;0.40;;;15.20;99.90;;;;;;7397783;19;20390;-76
2024/02/08 05:10:03;;;;;;;1.02;0.32;;;15.10;99.90;;;;;;7377308;19;20062;-77
2024/02/08 05:12:36;;;;;;;0.40;0.30;;;15.10;99.90;;;;;;7377185;19;20473;-77
2024/02/08 05:15:06;;;;;;;0.88;0.50;;;15.00;99.90;;;;;;7381471;19;20006;-77
2024/02/08 05:17:35;;;;;;;0.40;0.40;;;15.10;99.90;;;;;;7382862;19;20002;-77
2024/02/08 05:20:04;;;;;;;0.25;0.25;;;15.10;99.90;;;;;;7379971;19;20276;-77
2024/02/08 05:22:34;;;;;;;0.20;0.20;;;15.20;99.90;;;;;;7401236;19;20019;-77
2024/02/08 05:25:02;;;;;;;0.50;0.40;;;15.20;99.90;;;;;;7381546;19;20007;-77
2024/02/08 05:27:31;;;;;;;0.85;0.50;;;15.10;99.90;;;;;;7379355;19;20083;-77
2024/02/08 05:30:02;;;;;;;0.60;0.40;;;15.10;99.90;;;;;;7379529;19;20543;-77
2024/02/08 05:32:35;;;;;;;3.70;0.50;;;15.20;99.90;;;;;;7381436;19;20295;-77
2024/02/08 05:35:04;;;;;;;2.05;0.70;;;15.10;99.90;;;;;;7380089;19;20066;-77
2024/02/08 05:37:33;;;;;;;5.80;0.70;;;15.10;99.90;;;;;;7400749;19;20007;-77
2024/02/08 05:40:02;;;;;;;1.02;0.70;;;15.00;99.90;;;;;;7378161;19;20075;-77
2024/02/08 05:42:33;;;;;;;2.35;1.00;;;14.90;99.90;;;;;;7377467;19;20014;-77
2024/02/08 05:45:18;;;;;;;6.38;1.13;;;14.90;99.90;;;;;;7379790;19;20232;-76
2024/02/08 05:47:48;;;;;;;630.67;69.13;;;15.00;99.90;;;;;;7379565;19;20006;-77
2024/02/08 05:50:21;;;;;;;6.03;1.65;;;15.10;99.90;;;;;;7382299;19;20261;-77
2024/02/08 05:52:51;;;;;;;416.27;18.48;;;15.10;99.90;;;;;;7398813;19;19999;-77
2024/02/08 05:55:24;;;;;;;9.98;1.60;;;15.10;99.90;;;;;;7380166;19;20031;-77
2024/02/08 05:57:54;;;;;;;9.32;1.70;;;15.00;99.90;;;;;;7381736;19;20006;-76
2024/02/08 06:00:36;;;;;;;12.23;2.00;;;15.20;99.90;;;;;;7381920;19;20006;-76
2024/02/08 06:03:05;;;;;;;7.50;1.60;;;15.10;99.90;;;;;;7382501;19;20021;-77
2024/02/08 06:05:36;;;;;;;6.00;1.58;;;15.20;99.90;;;;;;7383410;19;20007;-77
2024/02/08 06:08:19;;;;;;;11.88;2.38;;;15.20;99.90;;;;;;7381648;19;20006;-77
2024/02/08 06:10:52;;;;;;;16.67;2.90;;;15.10;99.90;;;;;;7401957;19;20011;-77
2024/02/08 06:13:22;;;;;;;29.50;3.30;;;14.80;99.90;;;;;;7383510;19;20410;-78
2024/02/08 06:16:00;;;;;;;22.35;3.80;;;15.00;99.90;;;;;;7382991;19;20035;-77
2024/02/08 06:18:33;;;;;;;23.27;4.68;;;15.10;99.90;;;;;;7378803;19;20074;-77
2024/02/08 06:21:12;;;;;;;39.92;5.18;;;15.00;99.90;;;;;;7378725;19;20011;-77
2024/02/08 06:23:47;;;;;;;37.22;4.78;;;15.00;99.90;;;;;;7381057;19;20052;-78
2024/02/08 06:26:27;;;;;;;28.00;4.22;;;14.80;99.90;;;;;;7377857;19;20002;-77
2024/02/08 06:29:15;;;;;;;26.27;4.75;;;14.90;99.90;;;;;;7400736;19;20066;-78
2024/02/08 06:32:00;;;;;;;30.85;4.90;;;14.50;99.90;;;;;;7377737;19;20009;-77
2024/02/08 06:34:42;;;;;;;34.10;5.68;;;14.70;99.90;;;;;;7378499;19;20018;-77
2024/02/08 06:39:56;;;;;;;30.77;6.50;;;14.70;99.90;;;;;;7378289;19;20021;-77
2024/02/08 06:45:48;;;;;;;38.60;6.47;;;14.80;99.90;;;;;;7378493;19;20006;-77
2024/02/08 06:48:48;;;;;;;41.60;6.53;;;14.90;99.90;;;;;;7378210;19;20006;-77
2024/02/08 07:37:25;;;;;;;58.00;7.75;;;15.20;99.90;;;;;;7385100;19;20036;-78
2024/02/08 07:40:00;;;;;;;51.55;7.75;;;15.20;99.90;;;;;;7381276;19;20030;-78
2024/02/08 07:42:35;;;;;;;62.10;8.65;;;15.20;99.90;;;;;;7380256;19;20011;-78
2024/02/08 07:45:05;;;;;;;82.53;8.05;;;15.10;99.90;;;;;;7384015;19;20243;-77
2024/02/08 07:47:34;;;;;;;57.28;9.07;;;15.20;99.90;;;;;;7385633;19;19996;-78
2024/02/08 07:50:08;;;;;;;55.50;8.57;;;15.10;99.90;;;;;;7404690;19;20011;-77
2024/02/08 07:52:45;;;;;;;73.07;9.43;;;15.10;99.90;;;;;;7379831;19;20013;-77
2024/02/08 07:55:20;;;;;;;57.13;8.13;;;15.20;99.90;;;;;;7380442;19;20066;-77
2024/02/08 07:57:48;;;;;;;47.50;7.57;;;15.20;99.90;;;;;;7380398;19;20007;-77
2024/02/08 08:00:41;;;;;;;61.95;8.70;;;15.20;99.90;;;;;;7379269;19;20018;-77
2024/02/08 08:03:15;;;;;;;63.58;8.73;;;15.10;99.90;;;;;;7379970;19;19998;-77
2024/02/08 08:05:55;;;;;;;56.53;8.88;;;15.20;99.90;;;;;;7382102;19;20382;-78
2024/02/08 08:08:32;;;;;;;65.00;8.68;;;15.20;99.90;;;;;;7381773;19;20029;-78
2024/02/08 08:11:06;;;;;;;45.83;7.25;;;15.20;99.90;;;;;;7403437;19;20006;-74
2024/02/08 08:19:07;;;;;;;47.67;7.78;;;15.20;99.90;;;;;;7381085;19;20349;-78
2024/02/08 08:22:03;;;;;;;62.17;9.32;;;15.20;99.90;;;;;;7385141;19;20028;-78
2024/02/08 08:24:27;;;;;;;65.20;8.30;;;15.10;99.90;;;;;;7399101;19;20011;-78
2024/02/08 08:27:06;;;;;;;71.28;8.55;;;15.20;99.90;;;;;;7397960;19;20272;-77
2024/02/08 08:29:42;;;;;;;49.58;8.60;;;15.30;99.90;;;;;;7389160;19;20024;-76
2024/02/08 08:37:44;;;;;;;66.28;9.32;;;15.00;99.90;;;;;;7385685;19;20007;-77
2024/02/08 08:40:37;;;;;;;52.63;8.80;;;15.10;99.90;;;;;;7385998;19;20003;-77
2024/02/08 08:43:10;;;;;;;48.92;8.02;;;14.80;99.90;;;;;;7381882;19;20007;-74
2024/02/08 08:45:40;;;;;;;43.33;7.80;;;14.90;99.90;;;;;;7381919;19;20010;-74
2024/02/08 08:48:10;;;;;;;65.33;9.47;;;14.90;99.90;;;;;;7380540;19;20009;-75
2024/02/08 08:50:38;;;;;;;63.17;8.77;;;15.10;99.90;;;;;;7381503;19;20094;-78
2024/02/08 08:53:16;;;;;;;46.58;8.10;;;15.20;99.90;;;;;;7404908;19;20027;-76
2024/02/08 08:55:50;;;;;;;70.45;8.88;;;15.10;99.90;;;;;;7384095;19;20025;-77
2024/02/08 08:58:22;;;;;;;56.17;8.48;;;15.30;99.90;;;;;;7381581;19;20396;-77
2024/02/08 09:00:58;;;;;;;54.42;8.90;;;15.20;99.90;;;;;;7381209;19;20378;-77
2024/02/08 09:03:28;;;;;;;51.67;8.00;;;15.00;99.90;;;;;;7380027;19;20234;-77
2024/02/08 09:05:57;;;;;;;44.03;8.15;;;14.70;99.90;;;;;;7380943;19;20039;-76
2024/02/08 09:08:33;;;;;;;72.90;9.02;;;14.70;99.90;;;;;;7379932;19;20208;-76
2024/02/08 09:11:06;;;;;;;47.08;8.68;;;14.60;99.90;;;;;;7401321;19;20016;-74
2024/02/08 09:13:51;;;;;;;59.08;8.20;;;14.90;99.90;;;;;;7382328;19;20011;-78
2024/02/08 09:16:36;;;;;;;68.97;9.15;;;15.00;99.90;;;;;;7384554;19;20006;-78
2024/02/08 09:19:13;;;;;;;64.90;8.52;;;15.20;99.90;;;;;;7384006;19;20086;-76
2024/02/08 09:21:45;;;;;;;48.20;8.63;;;15.10;99.90;;;;;;7384560;19;20050;-77
2024/02/08 09:24:17;;;;;;;60.63;8.32;;;15.10;99.90;;;;;;7380857;19;20017;-74
2024/02/08 09:26:56;;;;;;;47.60;8.27;;;15.00;99.90;;;;;;7376125;19;20023;-74
2024/02/08 09:29:26;;;;;;;63.30;8.55;;;14.60;99.90;;;;;;7390773;19;20007;-73
2024/02/08 09:31:57;;;;;;;57.40;8.45;;;14.50;99.90;;;;;;7401500;19;20220;-74
2024/02/08 09:34:36;;;;;;;38.05;7.20;;;14.70;99.90;;;;;;7380923;19;20083;-75
2024/02/08 09:37:06;;;;;;;47.80;7.63;;;14.80;99.90;;;;;;7381767;19;20007;-76
2024/02/08 09:39:53;;;;;;;47.95;8.07;;;14.70;99.90;;;;;;7379283;19;20213;-78
2024/02/08 09:42:26;;;;;;;49.70;7.07;;;14.80;99.90;;;;;;7379629;19;20010;-76
2024/02/08 09:45:13;;;;;;;39.03;7.18;;;14.70;99.90;;;;;;7379547;19;20011;-77
2024/02/08 09:47:51;;;;;;;36.22;7.30;;;14.80;99.90;;;;;;7382782;19;20017;-77
2024/02/08 09:50:31;;;;;;;50.45;8.20;;;14.40;99.90;;;;;;7399507;19;20011;-77
2024/02/08 09:53:15;;;;;;;38.35;6.38;;;14.40;99.90;;;;;;7379301;19;20003;-76
2024/02/08 09:55:45;;;;;;;37.30;7.05;;;14.40;99.90;;;;;;7378423;19;20017;-76
2024/02/08 09:58:31;;;;;;;40.55;6.80;;;14.70;99.90;;;;;;7381928;19;20493;-76
2024/02/08 10:01:01;;;;;;;52.92;7.82;;;14.70;99.90;;;;;;7377930;19;20301;-75
2024/02/08 10:03:35;;;;;;;48.50;7.50;;;14.90;99.90;;;;;;7379258;19;20062;-78
2024/02/08 10:06:22;;;;;;;35.20;7.75;;;14.80;99.90;;;;;;7378510;19;20010;-75
2024/02/08 10:08:54;;;;;;;36.65;6.35;;;15.00;99.90;;;;;;7378492;19;19996;-77
2024/02/08 10:11:36;;;;;;;46.42;7.38;;;15.10;99.90;;;;;;7401933;19;20028;-75
2024/02/08 10:14:25;;;;;;;51.38;7.55;;;15.10;99.90;;;;;;7381594;19;20014;-76
2024/02/08 10:16:53;;;;;;;51.85;7.60;;;14.90;99.90;;;;;;7380149;19;20032;-74
2024/02/08 10:19:43;;;;;;;38.97;6.47;;;15.10;99.90;;;;;;7376555;19;20263;-75
2024/02/08 10:22:17;;;;;;;52.63;7.10;;;15.20;99.90;;;;;;7378289;19;20381;-75
2024/02/08 10:27:30;;;;;;;31.52;6.40;;;14.90;99.90;;;;;;7378078;19;20252;-75
2024/02/08 10:30:05;;;;;;;43.92;7.03;;;15.00;99.90;;;;;;7378572;19;20014;-74
2024/02/08 10:32:37;;;;;;;41.33;6.82;;;14.80;99.90;;;;;;7393123;19;20061;-77
2024/02/08 10:35:13;;;;;;;44.63;8.07;;;14.60;99.90;;;;;;7399295;19;20078;-77
2024/02/08 10:37:53;;;;;;;42.58;6.97;;;14.80;99.90;;;;;;7378662;19;20517;-77
2024/02/08 10:40:32;;;;;;;36.00;6.97;;;15.10;99.90;;;;;;7383009;19;19999;-77
2024/02/08 10:43:24;;;;;;;30.55;7.07;;;15.00;99.90;;;;;;7384856;19;20003;-76
2024/02/08 10:46:02;;;;;;;43.65;7.68;;;15.00;99.90;;;;;;7385583;19;20002;-77
2024/02/08 10:48:32;;;;;;;45.63;8.35;;;15.30;99.90;;;;;;7385217;19;20003;-77
2024/02/08 10:51:11;;;;;;;35.42;7.53;;;15.30;99.90;;;;;;7385593;19;20007;-77
2024/02/08 10:53:48;;;;;;;44.08;7.15;;;15.20;99.90;;;;;;7386608;19;20003;-77
2024/02/08 10:56:18;;;;;;;44.70;7.05;;;15.00;99.90;;;;;;7411504;19;20082;-74
2024/02/08 10:58:55;;;;;;;38.08;7.22;;;15.20;99.90;;;;;;7392980;19;20020;-77
2024/02/08 11:04:17;;;;;;;40.17;6.90;;;15.30;99.90;;;;;;7386202;19;20006;-75
2024/02/08 11:06:54;;;;;;;30.55;7.22;;;15.40;99.90;;;;;;7388463;19;20013;-76
2024/02/08 11:09:27;;;;;;;40.40;7.10;;;15.60;99.90;;;;;;7389090;19;20461;-76
2024/02/08 11:12:03;;;;;;;35.70;7.20;;;15.70;99.90;;;;;;7389903;19;20350;-76
2024/02/08 11:14:40;;;;;;;34.50;7.00;;;15.60;99.90;;;;;;7407629;19;20502;-76
2024/02/08 11:17:20;;;;;;;31.83;6.82;;;15.70;99.90;;;;;;7386277;19;20019;-75
2024/02/08 11:19:56;;;;;;;42.65;6.38;;;15.70;99.90;;;;;;7384407;19;20071;-76
2024/02/08 11:22:40;;;;;;;32.25;7.03;;;15.80;99.90;;;;;;7388443;19;20010;-76
2024/02/08 11:25:33;;;;;;;38.35;7.10;;;15.60;99.90;;;;;;7388367;19;20027;-77
2024/02/08 11:28:12;;;;;;;37.13;6.75;;;15.80;99.90;;;;;;7384398;19;20218;-75
2024/02/08 11:30:46;;;;;;;33.67;7.10;;;15.70;99.90;;;;;;7386331;19;20017;-76
2024/02/08 11:33:22;;;;;;;30.25;6.22;;;15.70;99.90;;;;;;7383780;19;20010;-77
2024/02/08 11:35:56;;;;;;;31.83;6.53;;;15.80;99.90;;;;;;7385058;19;20219;-77
2024/02/08 11:38:30;;;;;;;33.00;6.43;;;15.80;99.90;;;;;;7410987;19;20010;-76
2024/02/08 11:41:12;;;;;;;38.45;8.30;;;15.80;99.90;;;;;;7382719;19;20018;-76
2024/02/08 11:43:47;;;;;;;38.20;8.98;;;15.90;99.90;;;;;;7384112;19;20015;-78
2024/02/08 11:46:22;;;;;;;29.65;7.05;;;15.80;99.90;;;;;;7386244;19;20259;-77
2024/02/08 11:48:53;;;;;;;30.02;6.72;;;15.70;99.90;;;;;;7383708;19;20013;-75
2024/02/08 11:51:40;;;;;;;35.35;6.88;;;15.50;99.90;;;;;;7386877;19;20007;-79
2024/02/08 11:54:37;;;;;;;;;;;;;;;;;;;;;
2024/02/08 11:57:18;;;;;;;40.97;7.47;;;15.20;99.90;;;;;;7385286;19;20839;-79
2024/02/08 12:00:45;;;;;;;;;;;;;;;;;;;;;
2024/02/08 12:03:22;;;;;;;32.88;6.25;;;15.50;99.90;;;;;;7385994;19;20076;-79
2024/02/08 12:05:57;;;;;;;40.78;6.97;;;15.60;99.90;;;;;;7383572;19;20006;-80
2024/02/08 12:08:29;;;;;;;36.40;6.43;;;15.70;99.90;;;;;;7406045;19;20011;-80
2024/02/08 12:11:01;;;;;;;42.13;8.82;;;15.80;99.90;;;;;;7383244;19;20734;-79
2024/02/08 12:13:45;;;;;;;40.13;6.97;;;15.90;99.90;;;;;;7382243;19;20013;-78
2024/02/08 12:16:17;;;;;;;33.60;6.88;;;15.80;99.90;;;;;;7386355;19;20249;-77
2024/02/08 12:19:05;;;;;;;34.88;8.48;;;16.00;99.90;;;;;;7381216;19;20094;-78
2024/02/08 12:21:45;;;;;;;22.00;6.22;;;16.00;99.90;;;;;;7382626;19;20007;-75
2024/02/08 12:24:31;;;;;;;40.55;7.65;;;15.70;99.90;;;;;;7382716;19;20003;-76
2024/02/08 12:27:07;;;;;;;29.55;6.50;;;15.80;99.90;;;;;;7379490;19;20002;-79
2024/02/08 12:29:44;;;;;;;35.03;6.75;;;16.00;99.90;;;;;;7402835;19;20089;-77
2024/02/08 12:32:27;;;;;;;38.20;6.88;;;15.70;99.90;;;;;;7382979;19;20022;-75
2024/02/08 12:34:57;;;;;;;31.92;7.03;;;15.60;99.90;;;;;;7379247;19;20006;-76
2024/02/08 12:43:19;;;;;;;21.50;5.43;;;15.80;99.90;;;;;;7380170;19;20025;-77
2024/02/08 12:48:44;;;;;;;28.17;6.20;;;15.80;99.90;;;;;;7377743;19;20003;-76
2024/02/08 12:51:14;;;;;;;31.95;6.45;;;15.90;99.90;;;;;;7378638;19;20375;-75
2024/02/08 12:53:46;;;;;;;33.38;6.30;;;15.70;99.90;;;;;;7400201;19;20104;-76
2024/02/08 12:56:28;;;;;;;;;;;;;;;;;;;;;
2024/02/08 12:59:03;;;;;;;32.65;6.30;;;15.30;99.90;;;;;;7384110;19;20014;-75
2024/02/08 13:01:38;;;;;;;21.52;6.35;;;15.70;99.90;;;;;;7377425;19;20082;-75
2024/02/08 13:04:08;;;;;;;28.20;6.38;;;15.80;99.90;;;;;;7378291;19;20019;-76
2024/02/08 13:06:43;;;;;;;33.88;7.15;;;15.70;99.90;;;;;;7382363;19;20019;-77
2024/02/08 13:09:37;;;;;;;31.77;6.30;;;15.80;99.90;;;;;;7382864;19;20015;-75
2024/02/08 13:12:31;;;;;;;38.33;7.13;;;15.90;99.90;;;;;;7384215;19;20010;-76
2024/02/08 13:15:05;;;;;;;32.70;7.30;;;15.80;99.90;;;;;;7381776;19;20243;-75
2024/02/08 13:17:35;;;;;;;34.00;6.95;;;15.60;99.90;;;;;;7400585;19;20010;-76
2024/02/08 13:20:14;;;;;;;32.80;7.53;;;15.60;99.90;;;;;;7388426;19;20060;-75
2024/02/08 13:22:45;;;;;;;31.40;6.82;;;15.70;99.90;;;;;;7389091;19;20002;-77
2024/02/08 13:25:16;;;;;;;31.48;7.20;;;15.90;99.90;;;;;;7389926;19;20026;-77
2024/02/08 13:27:45;;;;;;;;;;;15.90;99.90;;;;;;7394856;19;19999;-79
2024/02/08 13:30:17;;;;;;;23.20;7.68;;;15.90;99.90;;;;;;7398078;19;19935;-77
2024/02/08 13:32:49;;;;;;;26.38;7.18;;;15.80;99.90;;;;;;7409654;19;20015;-77
2024/02/08 13:35:20;;;;;;;32.05;7.43;;;15.80;99.90;;;;;;7379750;19;20289;-77
2024/02/08 13:37:50;;;;;;;35.40;7.78;;;15.90;99.90;;;;;;7379009;19;20006;-77
2024/02/08 13:40:22;;;;;;;31.33;7.82;;;15.50;99.90;;;;;;7380697;19;20020;-79
2024/02/08 13:42:55;;;;;;;31.27;7.00;;;15.30;99.90;;;;;;7383212;19;20654;-79
2024/02/08 13:45:28;;;;;;;27.80;7.65;;;15.60;99.90;;;;;;7384432;19;20011;-76
2024/02/08 13:48:00;;;;;;;39.03;8.27;;;15.10;99.90;;;;;;7402180;19;20019;-77
2024/02/08 13:50:33;;;;;;;29.63;8.05;;;15.20;99.90;;;;;;7381166;19;20002;-75
2024/02/08 13:53:02;;;;;;;35.05;7.55;;;15.50;99.90;;;;;;7379266;19;20007;-75
2024/02/08 13:55:34;;;;;;;36.45;8.02;;;15.60;99.90;;;;;;7380922;19;20109;-79
2024/02/08 13:58:08;;;;;;;;;;;15.60;99.90;;;;;;7382495;19;20019;-80
2024/02/08 14:00:37;;;;;;;27.30;7.20;;;15.70;99.90;;;;;;7382956;19;19914;-75
2024/02/08 14:03:08;;;;;;;26.90;7.18;;;15.80;99.90;;;;;;7383991;19;20006;-75
2024/02/08 14:05:50;;;;;;;31.27;7.83;;;15.50;99.90;;;;;;7403528;19;20013;-78
2024/02/08 14:08:23;;;;;;;25.88;7.00;;;15.30;99.90;;;;;;7384093;19;20022;-77
2024/02/08 14:10:54;;;;;;;36.17;6.75;;;15.60;99.90;;;;;;7378508;19;20003;-77
2024/02/08 14:13:28;;;;;;;28.77;7.03;;;15.70;99.90;;;;;;7377176;19;20066;-77
2024/02/08 14:16:00;;;;;;;26.27;7.38;;;15.80;99.90;;;;;;7377279;19;20031;-76
2024/02/08 14:18:35;;;;;;;25.63;5.93;;;15.70;99.90;;;;;;7380098;19;20002;-76
2024/02/08 14:21:08;;;;;;;26.80;7.32;;;15.80;99.90;;;;;;7378228;19;20009;-76
2024/02/08 14:23:43;;;;;;;21.35;6.65;;;15.80;99.90;;;;;;7403507;19;20007;-75
2024/02/08 14:28:55;;;;;;;28.58;7.32;;;15.70;99.90;;;;;;7377639;19;20014;-75
2024/02/08 14:31:24;;;;;;;29.20;7.00;;;15.70;99.90;;;;;;7378145;19;19999;-76
2024/02/08 14:33:55;;;;;;;26.88;6.40;;;15.30;99.90;;;;;;7377806;19;20063;-76
2024/02/08 14:36:23;;;;;;;32.13;7.40;;;15.10;99.90;;;;;;7379513;19;20041;-74
2024/02/08 14:38:53;;;;;;;30.38;7.07;;;15.30;99.90;;;;;;7400665;19;20026;-74
2024/02/08 14:41:36;;;;;;;35.15;6.45;;;15.50;99.90;;;;;;7375756;19;20433;-77
2024/02/08 14:44:17;;;;;;;28.85;6.25;;;15.30;99.90;;;;;;7379344;19;20013;-75
2024/02/08 14:46:51;;;;;;;25.98;7.18;;;15.50;99.90;;;;;;7384745;19;20006;-77
2024/02/08 14:49:23;;;;;;;28.08;6.68;;;15.50;99.90;;;;;;7380354;19;20170;-77
2024/02/08 14:52:00;;;;;;;28.30;8.38;;;15.50;99.90;;;;;;7376368;19;20296;-76
2024/02/08 14:54:29;;;;;;;28.05;7.40;;;15.50;99.90;;;;;;7380413;19;20018;-76
2024/02/08 14:57:09;;;;;;;37.00;7.63;;;15.50;99.90;;;;;;7399548;19;20007;-77
2024/02/08 14:59:49;;;;;;;28.92;7.50;;;15.50;99.90;;;;;;7379223;19;20027;-77
2024/02/08 15:02:18;;;;;;;35.00;7.65;;;15.60;99.90;;;;;;7374585;19;20002;-75
2024/02/08 15:04:52;;;;;;;32.15;6.93;;;15.40;99.90;;;;;;7375959;19;20007;-75
2024/02/08 15:10:07;;;;;;;33.50;7.35;;;15.40;99.90;;;;;;7378914;19;20257;-75
2024/02/08 15:12:41;;;;;;;32.40;7.55;;;15.30;99.90;;;;;;7377269;19;20019;-74
2024/02/08 15:15:18;;;;;;;30.02;7.63;;;15.40;99.90;;;;;;7375167;19;20002;-74
2024/02/08 15:17:49;;;;;;;39.63;7.43;;;15.50;99.90;;;;;;7398320;19;20003;-75
2024/02/08 15:25:44;;;;;;;;;;;15.50;99.90;;;;;;7378198;19;20027;-74
2024/02/08 15:28:34;;;;;;;22.05;7.50;;;15.60;99.90;;;;;;7385683;19;19947;-74
2024/02/08 15:31:15;;;;;;;33.90;8.50;;;15.60;99.90;;;;;;7383688;19;20062;-74
2024/02/08 15:34:07;;;;;;;;;;;15.50;99.90;;;;;;7384341;19;20011;-75